sensor_id;sensor_type;location;lat;lon;timestamp;temperature;humidity
64880;HTU21D;51374;45.124;36.712;2023-01-25T00:02:22;-0.24;89.60
64880;HTU21D;51374;45.124;36.712;2023-01-25T00:04:48;-0.24;89.54
64880;HTU21D;51374;45.124;36.712;2023-01-25T00:07:14;-0.24;89.50
64880;HTU21D;51374;45.124;36.712;2023-01-25T00:09:39;-0.27;89.50
64880;HTU21D;51374;45.124;36.712;2023-01-25T00:12:05;-0.30;89.50
64880;HTU21D;51374;45.124;36.712;2023-01-25T00:14:31;-0.34;89.54
64880;HTU21D;51374;45.124;36.712;2023-01-25T00:16:57;-0.37;89.59
64880;HTU21D;51374;45.124;36.712;2023-01-25T00:19:23;-0.39;89.66
64880;HTU21D;51374;45.124;36.712;2023-01-25T00:21:49;-0.38;89.69
64880;HTU21D;51374;45.124;36.712;2023-01-25T00:24:15;-0.38;89.65
64880;HTU21D;51374;45.124;36.712;2023-01-25T00:26:41;-0.37;89.58
64880;HTU21D;51374;45.124;36.712;2023-01-25T00:29:11;-0.38;89.56
64880;HTU21D;51374;45.124;36.712;2023-01-25T00:31:45;-0.40;89.47
64880;HTU21D;51374;45.124;36.712;2023-01-25T00:36:57;-0.45;89.39
64880;HTU21D;51374;45.124;36.712;2023-01-25T00:39:26;-0.47;89.37
64880;HTU21D;51374;45.124;36.712;2023-01-25T00:41:53;-0.49;89.38
64880;HTU21D;51374;45.124;36.712;2023-01-25T00:44:19;-0.54;89.43
64880;HTU21D;51374;45.124;36.712;2023-01-25T00:46:45;-0.57;89.44
64880;HTU21D;51374;45.124;36.712;2023-01-25T00:49:23;-0.61;89.45
64880;HTU21D;51374;45.124;36.712;2023-01-25T00:51:51;-0.62;89.51
64880;HTU21D;51374;45.124;36.712;2023-01-25T00:54:18;-0.61;89.52
64880;HTU21D;51374;45.124;36.712;2023-01-25T00:56:44;-0.59;89.55
64880;HTU21D;51374;45.124;36.712;2023-01-25T00:59:11;-0.58;89.51
64880;HTU21D;51374;45.124;36.712;2023-01-25T01:01:39;-0.58;89.53
64880;HTU21D;51374;45.124;36.712;2023-01-25T01:04:05;-0.57;89.54
64880;HTU21D;51374;45.124;36.712;2023-01-25T01:06:34;-0.56;89.47
64880;HTU21D;51374;45.124;36.712;2023-01-25T01:09:00;-0.57;89.47
64880;HTU21D;51374;45.124;36.712;2023-01-25T01:11:26;-0.56;89.46
64880;HTU21D;51374;45.124;36.712;2023-01-25T01:13:55;-0.55;89.47
64880;HTU21D;51374;45.124;36.712;2023-01-25T01:16:22;-0.56;89.41
64880;HTU21D;51374;45.124;36.712;2023-01-25T01:18:51;-0.58;89.38
64880;HTU21D;51374;45.124;36.712;2023-01-25T01:21:17;-0.59;89.39
64880;HTU21D;51374;45.124;36.712;2023-01-25T01:23:43;-0.62;89.38
64880;HTU21D;51374;45.124;36.712;2023-01-25T01:26:13;-0.66;89.33
64880;HTU21D;51374;45.124;36.712;2023-01-25T01:28:39;-0.69;89.38
64880;HTU21D;51374;45.124;36.712;2023-01-25T01:31:08;-0.71;89.39
64880;HTU21D;51374;45.124;36.712;2023-01-25T01:33:37;-0.72;89.46
64880;HTU21D;51374;45.124;36.712;2023-01-25T01:36:15;-0.75;89.39
64880;HTU21D;51374;45.124;36.712;2023-01-25T01:38:41;-0.77;89.42
64880;HTU21D;51374;45.124;36.712;2023-01-25T01:41:08;-0.81;89.47
64880;HTU21D;51374;45.124;36.712;2023-01-25T01:43:35;-0.81;89.51
64880;HTU21D;51374;45.124;36.712;2023-01-25T01:46:08;-0.82;89.51
64880;HTU21D;51374;45.124;36.712;2023-01-25T01:48:48;-0.82;89.57
64880;HTU21D;51374;45.124;36.712;2023-01-25T01:51:36;-0.82;89.54
64880;HTU21D;51374;45.124;36.712;2023-01-25T01:54:13;-0.84;89.51
64880;HTU21D;51374;45.124;36.712;2023-01-25T01:56:44;-0.84;89.53
64880;HTU21D;51374;45.124;36.712;2023-01-25T01:59:12;-0.86;89.56
64880;HTU21D;51374;45.124;36.712;2023-01-25T02:01:38;-0.86;89.58
64880;HTU21D;51374;45.124;36.712;2023-01-25T02:04:05;-0.86;89.56
64880;HTU21D;51374;45.124;36.712;2023-01-25T02:06:35;-0.86;89.56
64880;HTU21D;51374;45.124;36.712;2023-01-25T02:09:04;-0.84;89.57
64880;HTU21D;51374;45.124;36.712;2023-01-25T02:11:31;-0.83;89.54
64880;HTU21D;51374;45.124;36.712;2023-01-25T02:13:58;-0.82;89.54
64880;HTU21D;51374;45.124;36.712;2023-01-25T02:16:26;-0.83;89.49
64880;HTU21D;51374;45.124;36.712;2023-01-25T02:18:55;-0.84;89.54
64880;HTU21D;51374;45.124;36.712;2023-01-25T02:21:23;-0.87;89.54
64880;HTU21D;51374;45.124;36.712;2023-01-25T02:23:58;-0.89;89.56
64880;HTU21D;51374;45.124;36.712;2023-01-25T02:26:26;-0.93;89.57
64880;HTU21D;51374;45.124;36.712;2023-01-25T02:29:04;-0.97;89.59
64880;HTU21D;51374;45.124;36.712;2023-01-25T02:31:31;-0.98;89.66
64880;HTU21D;51374;45.124;36.712;2023-01-25T02:33:59;-1.01;89.66
64880;HTU21D;51374;45.124;36.712;2023-01-25T02:36:30;-1.03;89.70
64880;HTU21D;51374;45.124;36.712;2023-01-25T02:41:26;-1.09;89.66
64880;HTU21D;51374;45.124;36.712;2023-01-25T02:43:53;-1.10;89.73
64880;HTU21D;51374;45.124;36.712;2023-01-25T02:46:26;-1.11;89.76
64880;HTU21D;51374;45.124;36.712;2023-01-25T02:48:53;-1.13;89.71
64880;HTU21D;51374;45.124;36.712;2023-01-25T02:51:20;-1.14;89.71
64880;HTU21D;51374;45.124;36.712;2023-01-25T02:53:46;-1.14;89.73
64880;HTU21D;51374;45.124;36.712;2023-01-25T02:56:12;-1.14;89.70
64880;HTU21D;51374;45.124;36.712;2023-01-25T02:58:38;-1.15;89.71
64880;HTU21D;51374;45.124;36.712;2023-01-25T03:01:04;-1.16;89.66
64880;HTU21D;51374;45.124;36.712;2023-01-25T03:03:30;-1.18;89.66
64880;HTU21D;51374;45.124;36.712;2023-01-25T03:05:56;-1.23;89.69
64880;HTU21D;51374;45.124;36.712;2023-01-25T03:08:24;-1.26;89.73
64880;HTU21D;51374;45.124;36.712;2023-01-25T03:10:58;-1.30;89.77
64880;HTU21D;51374;45.124;36.712;2023-01-25T03:13:26;-1.33;89.80
64880;HTU21D;51374;45.124;36.712;2023-01-25T03:15:57;-1.36;89.86
64880;HTU21D;51374;45.124;36.712;2023-01-25T03:18:24;-1.38;89.90
64880;HTU21D;51374;45.124;36.712;2023-01-25T03:20:50;-1.40;89.97
64880;HTU21D;51374;45.124;36.712;2023-01-25T03:23:16;-1.40;89.93
64880;HTU21D;51374;45.124;36.712;2023-01-25T03:25:42;-1.41;89.97
64880;HTU21D;51374;45.124;36.712;2023-01-25T03:28:13;-1.42;89.98
64880;HTU21D;51374;45.124;36.712;2023-01-25T03:30:39;-1.42;89.97
64880;HTU21D;51374;45.124;36.712;2023-01-25T03:33:05;-1.43;90.00
64880;HTU21D;51374;45.124;36.712;2023-01-25T03:35:33;-1.43;90.00
64880;HTU21D;51374;45.124;36.712;2023-01-25T03:37:59;-1.44;89.94
64880;HTU21D;51374;45.124;36.712;2023-01-25T03:40:25;-1.45;89.96
64880;HTU21D;51374;45.124;36.712;2023-01-25T03:42:51;-1.47;89.98
64880;HTU21D;51374;45.124;36.712;2023-01-25T03:45:18;-1.48;89.93
64880;HTU21D;51374;45.124;36.712;2023-01-25T03:47:44;-1.50;89.93
64880;HTU21D;51374;45.124;36.712;2023-01-25T03:50:10;-1.52;89.91
64880;HTU21D;51374;45.124;36.712;2023-01-25T03:52:37;-1.53;89.85
64880;HTU21D;51374;45.124;36.712;2023-01-25T03:55:41;-1.55;89.80
64880;HTU21D;51374;45.124;36.712;2023-01-25T03:58:31;-1.55;89.78
64880;HTU21D;51374;45.124;36.712;2023-01-25T04:00:59;-1.57;89.76
64880;HTU21D;51374;45.124;36.712;2023-01-25T04:03:25;-1.59;89.81
64880;HTU21D;51374;45.124;36.712;2023-01-25T04:05:55;-1.59;89.80
64880;HTU21D;51374;45.124;36.712;2023-01-25T04:08:22;-1.60;89.88
64880;HTU21D;51374;45.124;36.712;2023-01-25T04:10:54;-1.61;89.91
64880;HTU21D;51374;45.124;36.712;2023-01-25T04:13:23;-1.59;89.95
64880;HTU21D;51374;45.124;36.712;2023-01-25T04:15:49;-1.56;90.00
64880;HTU21D;51374;45.124;36.712;2023-01-25T04:18:32;-1.50;89.97
64880;HTU21D;51374;45.124;36.712;2023-01-25T04:20:58;-1.48;89.93
64880;HTU21D;51374;45.124;36.712;2023-01-25T04:23:25;-1.45;89.93
64880;HTU21D;51374;45.124;36.712;2023-01-25T04:26:05;-1.42;89.93
64880;HTU21D;51374;45.124;36.712;2023-01-25T04:28:33;-1.41;89.91
64880;HTU21D;51374;45.124;36.712;2023-01-25T04:31:00;-1.40;89.87
64880;HTU21D;51374;45.124;36.712;2023-01-25T04:33:33;-1.41;89.84
64880;HTU21D;51374;45.124;36.712;2023-01-25T04:35:59;-1.42;89.85
64880;HTU21D;51374;45.124;36.712;2023-01-25T04:38:25;-1.42;89.86
64880;HTU21D;51374;45.124;36.712;2023-01-25T04:40:52;-1.42;89.92
64880;HTU21D;51374;45.124;36.712;2023-01-25T04:43:19;-1.40;89.92
64880;HTU21D;51374;45.124;36.712;2023-01-25T04:45:46;-1.36;89.94
64880;HTU21D;51374;45.124;36.712;2023-01-25T04:48:20;-1.32;89.98
64880;HTU21D;51374;45.124;36.712;2023-01-25T04:50:54;-1.27;89.93
64880;HTU21D;51374;45.124;36.712;2023-01-25T04:53:21;-1.20;89.92
64880;HTU21D;51374;45.124;36.712;2023-01-25T04:55:48;-1.15;89.88
64880;HTU21D;51374;45.124;36.712;2023-01-25T04:58:14;-1.11;89.76
64880;HTU21D;51374;45.124;36.712;2023-01-25T05:00:42;-1.08;89.79
64880;HTU21D;51374;45.124;36.712;2023-01-25T05:03:09;-1.05;89.74
64880;HTU21D;51374;45.124;36.712;2023-01-25T05:05:36;-1.02;89.79
64880;HTU21D;51374;45.124;36.712;2023-01-25T05:08:07;-0.98;89.79
64880;HTU21D;51374;45.124;36.712;2023-01-25T05:10:33;-0.96;89.74
64880;HTU21D;51374;45.124;36.712;2023-01-25T05:13:35;-0.93;89.76
64880;HTU21D;51374;45.124;36.712;2023-01-25T05:16:19;-0.93;89.77
64880;HTU21D;51374;45.124;36.712;2023-01-25T05:18:46;-0.93;89.73
64880;HTU21D;51374;45.124;36.712;2023-01-25T05:21:15;-0.94;89.76
64880;HTU21D;51374;45.124;36.712;2023-01-25T05:24:00;-0.95;89.79
64880;HTU21D;51374;45.124;36.712;2023-01-25T05:26:27;-0.93;89.87
64880;HTU21D;51374;45.124;36.712;2023-01-25T05:29:12;-0.93;89.84
64880;HTU21D;51374;45.124;36.712;2023-01-25T05:31:44;-0.93;89.85
64880;HTU21D;51374;45.124;36.712;2023-01-25T05:34:10;-0.90;89.84
64880;HTU21D;51374;45.124;36.712;2023-01-25T05:36:36;-0.88;89.88
64880;HTU21D;51374;45.124;36.712;2023-01-25T05:39:04;-0.86;89.87
64880;HTU21D;51374;45.124;36.712;2023-01-25T05:41:32;-0.82;89.88
64880;HTU21D;51374;45.124;36.712;2023-01-25T05:43:58;-0.81;89.91
64880;HTU21D;51374;45.124;36.712;2023-01-25T05:46:28;-0.76;89.91
64880;HTU21D;51374;45.124;36.712;2023-01-25T05:48:55;-0.72;89.92
64880;HTU21D;51374;45.124;36.712;2023-01-25T05:51:24;-0.70;89.95
64880;HTU21D;51374;45.124;36.712;2023-01-25T05:53:49;-0.65;89.92
64880;HTU21D;51374;45.124;36.712;2023-01-25T05:56:16;-0.59;89.95
64880;HTU21D;51374;45.124;36.712;2023-01-25T05:58:42;-0.55;90.00
64880;HTU21D;51374;45.124;36.712;2023-01-25T06:01:08;-0.50;90.03
64880;HTU21D;51374;45.124;36.712;2023-01-25T06:03:46;-0.44;90.05
64880;HTU21D;51374;45.124;36.712;2023-01-25T06:06:12;-0.39;90.05
64880;HTU21D;51374;45.124;36.712;2023-01-25T06:08:39;-0.32;90.07
64880;HTU21D;51374;45.124;36.712;2023-01-25T06:11:09;-0.25;90.04
64880;HTU21D;51374;45.124;36.712;2023-01-25T06:13:39;-0.20;90.04
64880;HTU21D;51374;45.124;36.712;2023-01-25T06:16:06;-0.13;90.05
64880;HTU21D;51374;45.124;36.712;2023-01-25T06:18:41;-0.09;90.10
64880;HTU21D;51374;45.124;36.712;2023-01-25T06:21:23;-0.02;90.08
64880;HTU21D;51374;45.124;36.712;2023-01-25T06:23:49;0.02;90.15
64880;HTU21D;51374;45.124;36.712;2023-01-25T06:26:15;0.06;90.18
64880;HTU21D;51374;45.124;36.712;2023-01-25T06:28:41;0.10;90.31
64880;HTU21D;51374;45.124;36.712;2023-01-25T06:31:12;0.15;90.37
64880;HTU21D;51374;45.124;36.712;2023-01-25T06:33:40;0.19;90.38
64880;HTU21D;51374;45.124;36.712;2023-01-25T06:36:10;0.21;90.39
64880;HTU21D;51374;45.124;36.712;2023-01-25T06:38:36;0.24;90.41
64880;HTU21D;51374;45.124;36.712;2023-01-25T06:41:04;0.25;90.39
64880;HTU21D;51374;45.124;36.712;2023-01-25T06:43:31;0.23;90.53
64880;HTU21D;51374;45.124;36.712;2023-01-25T06:45:59;0.24;90.61
64880;HTU21D;51374;45.124;36.712;2023-01-25T06:48:25;0.25;90.62
64880;HTU21D;51374;45.124;36.712;2023-01-25T06:50:56;0.28;90.58
64880;HTU21D;51374;45.124;36.712;2023-01-25T06:53:24;0.27;90.66
64880;HTU21D;51374;45.124;36.712;2023-01-25T06:55:56;0.29;90.73
64880;HTU21D;51374;45.124;36.712;2023-01-25T06:58:22;0.30;90.73
64880;HTU21D;51374;45.124;36.712;2023-01-25T07:00:48;0.29;90.80
64880;HTU21D;51374;45.124;36.712;2023-01-25T07:03:14;0.30;90.81
64880;HTU21D;51374;45.124;36.712;2023-01-25T07:05:40;0.30;90.86
64880;HTU21D;51374;45.124;36.712;2023-01-25T07:08:05;0.35;90.86
64880;HTU21D;51374;45.124;36.712;2023-01-25T07:10:31;0.36;90.94
64880;HTU21D;51374;45.124;36.712;2023-01-25T07:12:57;0.38;90.87
64880;HTU21D;51374;45.124;36.712;2023-01-25T07:15:23;0.40;90.82
64880;HTU21D;51374;45.124;36.712;2023-01-25T07:17:49;0.40;90.83
64880;HTU21D;51374;45.124;36.712;2023-01-25T07:20:15;0.40;90.82
64880;HTU21D;51374;45.124;36.712;2023-01-25T07:22:41;0.40;90.78
64880;HTU21D;51374;45.124;36.712;2023-01-25T07:25:07;0.43;90.79
64880;HTU21D;51374;45.124;36.712;2023-01-25T07:27:33;0.44;90.80
64880;HTU21D;51374;45.124;36.712;2023-01-25T07:29:59;0.45;90.81
64880;HTU21D;51374;45.124;36.712;2023-01-25T07:32:26;0.46;90.76
64880;HTU21D;51374;45.124;36.712;2023-01-25T07:34:52;0.47;90.82
64880;HTU21D;51374;45.124;36.712;2023-01-25T07:37:17;0.47;90.84
64880;HTU21D;51374;45.124;36.712;2023-01-25T07:39:43;0.46;90.73
64880;HTU21D;51374;45.124;36.712;2023-01-25T07:42:15;0.46;90.75
64880;HTU21D;51374;45.124;36.712;2023-01-25T07:44:49;0.46;90.83
64880;HTU21D;51374;45.124;36.712;2023-01-25T07:47:15;0.46;90.85
64880;HTU21D;51374;45.124;36.712;2023-01-25T07:49:41;0.47;90.86
64880;HTU21D;51374;45.124;36.712;2023-01-25T07:52:07;0.48;90.82
64880;HTU21D;51374;45.124;36.712;2023-01-25T07:54:33;0.49;90.83
64880;HTU21D;51374;45.124;36.712;2023-01-25T07:56:59;0.49;90.79
64880;HTU21D;51374;45.124;36.712;2023-01-25T07:59:25;0.51;90.78
64880;HTU21D;51374;45.124;36.712;2023-01-25T08:01:51;0.51;90.79
64880;HTU21D;51374;45.124;36.712;2023-01-25T08:04:18;0.52;90.77
64880;HTU21D;51374;45.124;36.712;2023-01-25T08:06:44;0.51;90.76
64880;HTU21D;51374;45.124;36.712;2023-01-25T08:09:14;0.52;90.79
64880;HTU21D;51374;45.124;36.712;2023-01-25T08:11:41;0.53;90.85
64880;HTU21D;51374;45.124;36.712;2023-01-25T08:14:07;0.55;90.79
64880;HTU21D;51374;45.124;36.712;2023-01-25T08:16:34;0.57;90.83
64880;HTU21D;51374;45.124;36.712;2023-01-25T08:19:01;0.58;90.78
64880;HTU21D;51374;45.124;36.712;2023-01-25T08:21:27;0.58;90.73
64880;HTU21D;51374;45.124;36.712;2023-01-25T08:23:59;0.60;90.77
64880;HTU21D;51374;45.124;36.712;2023-01-25T08:26:25;0.62;90.83
64880;HTU21D;51374;45.124;36.712;2023-01-25T08:28:52;0.65;90.79
64880;HTU21D;51374;45.124;36.712;2023-01-25T08:31:21;0.66;90.73
64880;HTU21D;51374;45.124;36.712;2023-01-25T08:33:50;0.68;90.73
64880;HTU21D;51374;45.124;36.712;2023-01-25T08:36:17;0.72;90.73
64880;HTU21D;51374;45.124;36.712;2023-01-25T08:38:47;0.72;90.66
64880;HTU21D;51374;45.124;36.712;2023-01-25T08:41:14;0.72;90.66
64880;HTU21D;51374;45.124;36.712;2023-01-25T08:43:42;0.71;90.65
64880;HTU21D;51374;45.124;36.712;2023-01-25T08:46:08;0.69;90.63
64880;HTU21D;51374;45.124;36.712;2023-01-25T08:48:35;0.68;90.57
64880;HTU21D;51374;45.124;36.712;2023-01-25T08:51:02;0.66;90.59
64880;HTU21D;51374;45.124;36.712;2023-01-25T08:53:29;0.67;90.61
64880;HTU21D;51374;45.124;36.712;2023-01-25T08:55:55;0.67;90.66
64880;HTU21D;51374;45.124;36.712;2023-01-25T08:58:21;0.69;90.66
64880;HTU21D;51374;45.124;36.712;2023-01-25T09:00:48;0.69;90.63
64880;HTU21D;51374;45.124;36.712;2023-01-25T09:03:14;0.69;90.57
64880;HTU21D;51374;45.124;36.712;2023-01-25T09:05:40;0.67;90.60
64880;HTU21D;51374;45.124;36.712;2023-01-25T09:08:07;0.66;90.64
64880;HTU21D;51374;45.124;36.712;2023-01-25T09:10:34;0.67;90.58
64880;HTU21D;51374;45.124;36.712;2023-01-25T09:13:00;0.68;90.58
64880;HTU21D;51374;45.124;36.712;2023-01-25T09:15:26;0.68;90.58
64880;HTU21D;51374;45.124;36.712;2023-01-25T09:17:53;0.67;90.58
64880;HTU21D;51374;45.124;36.712;2023-01-25T09:20:20;0.71;90.63
64880;HTU21D;51374;45.124;36.712;2023-01-25T09:22:46;0.75;90.64
64880;HTU21D;51374;45.124;36.712;2023-01-25T09:25:12;0.76;90.57
64880;HTU21D;51374;45.124;36.712;2023-01-25T09:27:39;0.77;90.50
64880;HTU21D;51374;45.124;36.712;2023-01-25T09:30:06;0.77;90.49
64880;HTU21D;51374;45.124;36.712;2023-01-25T09:32:34;0.76;90.42
64880;HTU21D;51374;45.124;36.712;2023-01-25T09:35:00;0.75;90.46
64880;HTU21D;51374;45.124;36.712;2023-01-25T09:37:26;0.75;90.49
64880;HTU21D;51374;45.124;36.712;2023-01-25T09:39:51;0.75;90.50
64880;HTU21D;51374;45.124;36.712;2023-01-25T09:45:35;0.73;90.49
64880;HTU21D;51374;45.124;36.712;2023-01-25T09:53:34;0.77;90.41
64880;HTU21D;51374;45.124;36.712;2023-01-25T09:56:08;0.78;90.45
64880;HTU21D;51374;45.124;36.712;2023-01-25T09:58:38;0.78;90.41
64880;HTU21D;51374;45.124;36.712;2023-01-25T10:01:42;0.76;90.36
64880;HTU21D;51374;45.124;36.712;2023-01-25T10:06:47;0.73;90.37
64880;HTU21D;51374;45.124;36.712;2023-01-25T10:09:23;0.71;90.41
64880;HTU21D;51374;45.124;36.712;2023-01-25T10:11:52;0.72;90.42
64880;HTU21D;51374;45.124;36.712;2023-01-25T10:14:18;0.71;90.43
64880;HTU21D;51374;45.124;36.712;2023-01-25T10:27:19;0.74;90.34
64880;HTU21D;51374;45.124;36.712;2023-01-25T10:29:47;0.73;90.37
64880;HTU21D;51374;45.124;36.712;2023-01-25T10:32:19;0.72;90.32
64880;HTU21D;51374;45.124;36.712;2023-01-25T10:34:50;0.72;90.37
64880;HTU21D;51374;45.124;36.712;2023-01-25T10:37:20;0.75;90.42
64880;HTU21D;51374;45.124;36.712;2023-01-25T10:39:58;0.76;90.43
64880;HTU21D;51374;45.124;36.712;2023-01-25T10:42:26;0.78;90.39
64880;HTU21D;51374;45.124;36.712;2023-01-25T10:44:54;0.80;90.41
64880;HTU21D;51374;45.124;36.712;2023-01-25T10:47:32;0.81;90.37
64880;HTU21D;51374;45.124;36.712;2023-01-25T10:49:59;0.78;90.18
64880;HTU21D;51374;45.124;36.712;2023-01-25T10:52:26;0.75;90.20
64880;HTU21D;51374;45.124;36.712;2023-01-25T10:55:15;0.75;90.27
64880;HTU21D;51374;45.124;36.712;2023-01-25T10:57:48;0.72;90.24
64880;HTU21D;51374;45.124;36.712;2023-01-25T11:00:37;0.68;90.25
64880;HTU21D;51374;45.124;36.712;2023-01-25T11:03:05;0.64;90.21
64880;HTU21D;51374;45.124;36.712;2023-01-25T11:05:35;0.63;90.28
64880;HTU21D;51374;45.124;36.712;2023-01-25T11:10:55;0.65;90.31
64880;HTU21D;51374;45.124;36.712;2023-01-25T11:13:28;0.63;90.25
64880;HTU21D;51374;45.124;36.712;2023-01-25T11:18:33;0.62;90.34
64880;HTU21D;51374;45.124;36.712;2023-01-25T11:23:30;0.67;90.41
64880;HTU21D;51374;45.124;36.712;2023-01-25T11:26:11;0.71;90.41
64880;HTU21D;51374;45.124;36.712;2023-01-25T11:28:37;0.72;90.35
64880;HTU21D;51374;45.124;36.712;2023-01-25T11:31:08;0.67;90.19
64880;HTU21D;51374;45.124;36.712;2023-01-25T11:33:35;0.66;90.24
64880;HTU21D;51374;45.124;36.712;2023-01-25T11:46:59;0.68;90.27
64880;HTU21D;51374;45.124;36.712;2023-01-25T12:05:01;0.65;90.15
64880;HTU21D;51374;45.124;36.712;2023-01-25T12:07:50;0.64;90.19
64880;HTU21D;51374;45.124;36.712;2023-01-25T12:10:49;0.63;90.18
64880;HTU21D;51374;45.124;36.712;2023-01-25T12:13:35;0.60;90.15
64880;HTU21D;51374;45.124;36.712;2023-01-25T12:27:33;0.55;90.18
64880;HTU21D;51374;45.124;36.712;2023-01-25T12:30:25;0.51;90.15
64880;HTU21D;51374;45.124;36.712;2023-01-25T12:33:01;0.49;90.14
64880;HTU21D;51374;45.124;36.712;2023-01-25T12:35:51;0.46;90.16
64880;HTU21D;51374;45.124;36.712;2023-01-25T12:38:28;0.45;90.24
64880;HTU21D;51374;45.124;36.712;2023-01-25T12:41:05;0.48;90.29
64880;HTU21D;51374;45.124;36.712;2023-01-25T12:43:38;0.50;90.31
64880;HTU21D;51374;45.124;36.712;2023-01-25T12:46:16;0.50;90.24
64880;HTU21D;51374;45.124;36.712;2023-01-25T12:48:48;0.47;90.20
64880;HTU21D;51374;45.124;36.712;2023-01-25T12:51:16;0.47;90.25
64880;HTU21D;51374;45.124;36.712;2023-01-25T12:53:46;0.47;90.26
64880;HTU21D;51374;45.124;36.712;2023-01-25T12:56:30;0.44;90.24
64880;HTU21D;51374;45.124;36.712;2023-01-25T13:07:41;0.30;90.30
64880;HTU21D;51374;45.124;36.712;2023-01-25T13:12:55;0.29;90.33
64880;HTU21D;51374;45.124;36.712;2023-01-25T13:15:35;0.30;90.34
64880;HTU21D;51374;45.124;36.712;2023-01-25T13:20:59;0.24;90.28
64880;HTU21D;51374;45.124;36.712;2023-01-25T13:26:36;0.22;90.33
64880;HTU21D;51374;45.124;36.712;2023-01-25T13:29:02;0.22;90.37
64880;HTU21D;51374;45.124;36.712;2023-01-25T13:37:02;0.20;90.29
64880;HTU21D;51374;45.124;36.712;2023-01-25T13:39:45;0.15;90.23
64880;HTU21D;51374;45.124;36.712;2023-01-25T13:44:42;0.07;90.31
64880;HTU21D;51374;45.124;36.712;2023-01-25T13:47:24;0.06;90.39
64880;HTU21D;51374;45.124;36.712;2023-01-25T13:52:59;0.05;90.41
64880;HTU21D;51374;45.124;36.712;2023-01-25T13:55:26;0.02;90.38
64880;HTU21D;51374;45.124;36.712;2023-01-25T13:57:53;0.02;90.42
64880;HTU21D;51374;45.124;36.712;2023-01-25T14:00:32;0.01;90.40
64880;HTU21D;51374;45.124;36.712;2023-01-25T14:02:58;0.01;90.42
64880;HTU21D;51374;45.124;36.712;2023-01-25T14:05:26;-0.01;90.45
64880;HTU21D;51374;45.124;36.712;2023-01-25T14:07:53;-0.01;90.45
64880;HTU21D;51374;45.124;36.712;2023-01-25T14:10:22;-0.02;90.46
64880;HTU21D;51374;45.124;36.712;2023-01-25T14:12:51;-0.07;90.45
64880;HTU21D;51374;45.124;36.712;2023-01-25T14:15:27;-0.09;90.44
64880;HTU21D;51374;45.124;36.712;2023-01-25T14:18:16;-0.14;90.44
64880;HTU21D;51374;45.124;36.712;2023-01-25T14:20:45;-0.17;90.45
64880;HTU21D;51374;45.124;36.712;2023-01-25T14:23:38;-0.20;90.50
64880;HTU21D;51374;45.124;36.712;2023-01-25T14:28:45;-0.25;90.41
64880;HTU21D;51374;45.124;36.712;2023-01-25T14:31:37;-0.27;90.51
64880;HTU21D;51374;45.124;36.712;2023-01-25T14:34:04;-0.25;90.57
64880;HTU21D;51374;45.124;36.712;2023-01-25T14:36:32;-0.25;90.56
64880;HTU21D;51374;45.124;36.712;2023-01-25T14:38:59;-0.24;90.52
64880;HTU21D;51374;45.124;36.712;2023-01-25T14:41:32;-0.24;90.53
64880;HTU21D;51374;45.124;36.712;2023-01-25T14:44:13;-0.24;90.57
64880;HTU21D;51374;45.124;36.712;2023-01-25T14:46:40;-0.25;90.52
64880;HTU21D;51374;45.124;36.712;2023-01-25T14:49:07;-0.26;90.52
64880;HTU21D;51374;45.124;36.712;2023-01-25T14:51:40;-0.26;90.55
64880;HTU21D;51374;45.124;36.712;2023-01-25T14:54:34;-0.27;90.53
64880;HTU21D;51374;45.124;36.712;2023-01-25T14:57:05;-0.28;90.54
64880;HTU21D;51374;45.124;36.712;2023-01-25T14:59:38;-0.29;90.53
64880;HTU21D;51374;45.124;36.712;2023-01-25T15:02:44;-0.37;90.42
64880;HTU21D;51374;45.124;36.712;2023-01-25T15:07:43;-0.41;90.51
64880;HTU21D;51374;45.124;36.712;2023-01-25T15:10:31;-0.42;90.63
64880;HTU21D;51374;45.124;36.712;2023-01-25T15:15:55;-0.40;90.61
64880;HTU21D;51374;45.124;36.712;2023-01-25T15:21:17;-0.47;90.47
64880;HTU21D;51374;45.124;36.712;2023-01-25T15:23:46;-0.53;90.51
64880;HTU21D;51374;45.124;36.712;2023-01-25T15:26:16;-0.56;90.53
64880;HTU21D;51374;45.124;36.712;2023-01-25T15:28:42;-0.58;90.62
64880;HTU21D;51374;45.124;36.712;2023-01-25T15:33:43;-0.61;90.65
64880;HTU21D;51374;45.124;36.712;2023-01-25T15:36:09;-0.62;90.66
64880;HTU21D;51374;45.124;36.712;2023-01-25T15:38:35;-0.62;90.70
64880;HTU21D;51374;45.124;36.712;2023-01-25T15:41:01;-0.62;90.73
64880;HTU21D;51374;45.124;36.712;2023-01-25T15:43:27;-0.61;90.76
64880;HTU21D;51374;45.124;36.712;2023-01-25T15:45:53;-0.61;90.73
64880;HTU21D;51374;45.124;36.712;2023-01-25T15:48:30;-0.58;90.82
64880;HTU21D;51374;45.124;36.712;2023-01-25T15:50:57;-0.56;90.76
64880;HTU21D;51374;45.124;36.712;2023-01-25T15:53:23;-0.56;90.79
64880;HTU21D;51374;45.124;36.712;2023-01-25T15:55:52;-0.56;90.72
64880;HTU21D;51374;45.124;36.712;2023-01-25T15:58:34;-0.59;90.66
64880;HTU21D;51374;45.124;36.712;2023-01-25T16:01:01;-0.60;90.73
64880;HTU21D;51374;45.124;36.712;2023-01-25T16:03:28;-0.60;90.77
64880;HTU21D;51374;45.124;36.712;2023-01-25T16:06:02;-0.59;90.78
64880;HTU21D;51374;45.124;36.712;2023-01-25T16:08:29;-0.60;90.76
64880;HTU21D;51374;45.124;36.712;2023-01-25T16:10:55;-0.62;90.72
64880;HTU21D;51374;45.124;36.712;2023-01-25T16:13:21;-0.66;90.72
64880;HTU21D;51374;45.124;36.712;2023-01-25T16:15:52;-0.66;90.75
64880;HTU21D;51374;45.124;36.712;2023-01-25T16:18:18;-0.66;90.80
64880;HTU21D;51374;45.124;36.712;2023-01-25T16:20:44;-0.67;90.79
64880;HTU21D;51374;45.124;36.712;2023-01-25T16:23:10;-0.68;90.82
64880;HTU21D;51374;45.124;36.712;2023-01-25T16:25:38;-0.66;90.88
64880;HTU21D;51374;45.124;36.712;2023-01-25T16:28:04;-0.66;90.86
64880;HTU21D;51374;45.124;36.712;2023-01-25T16:30:30;-0.65;90.91
64880;HTU21D;51374;45.124;36.712;2023-01-25T16:32:59;-0.61;90.89
64880;HTU21D;51374;45.124;36.712;2023-01-25T16:35:25;-0.60;90.90
64880;HTU21D;51374;45.124;36.712;2023-01-25T16:37:51;-0.60;90.87
64880;HTU21D;51374;45.124;36.712;2023-01-25T16:40:21;-0.61;90.87
64880;HTU21D;51374;45.124;36.712;2023-01-25T16:42:47;-0.62;90.87
64880;HTU21D;51374;45.124;36.712;2023-01-25T16:45:13;-0.62;90.89
64880;HTU21D;51374;45.124;36.712;2023-01-25T16:47:45;-0.61;90.91
64880;HTU21D;51374;45.124;36.712;2023-01-25T16:50:17;-0.62;90.95
64880;HTU21D;51374;45.124;36.712;2023-01-25T16:52:43;-0.60;90.95
64880;HTU21D;51374;45.124;36.712;2023-01-25T16:55:12;-0.59;90.98
64880;HTU21D;51374;45.124;36.712;2023-01-25T16:57:39;-0.59;90.98
64880;HTU21D;51374;45.124;36.712;2023-01-25T17:00:06;-0.57;90.99
64880;HTU21D;51374;45.124;36.712;2023-01-25T17:02:36;-0.56;91.01
64880;HTU21D;51374;45.124;36.712;2023-01-25T17:05:03;-0.57;90.96
64880;HTU21D;51374;45.124;36.712;2023-01-25T17:07:29;-0.55;91.02
64880;HTU21D;51374;45.124;36.712;2023-01-25T17:09:56;-0.55;91.01
64880;HTU21D;51374;45.124;36.712;2023-01-25T17:12:22;-0.56;90.96
64880;HTU21D;51374;45.124;36.712;2023-01-25T17:14:47;-0.56;90.97
64880;HTU21D;51374;45.124;36.712;2023-01-25T17:17:13;-0.56;91.02
64880;HTU21D;51374;45.124;36.712;2023-01-25T17:19:39;-0.55;91.00